createdAt,value
2022-10-07T00:00:20.350Z,101476.16
2022-10-07T00:02:49.154Z,101475.38
2022-10-07T00:05:19.706Z,101477.19
2022-10-07T00:07:48.337Z,101485.09
2022-10-07T00:10:17.102Z,101474.69
2022-10-07T00:12:45.706Z,101472.13
2022-10-07T00:15:14.290Z,101471.28
2022-10-07T00:17:44.055Z,101473.91
2022-10-07T00:20:13.285Z,101467.88
2022-10-07T00:22:43.808Z,101470.47
2022-10-07T00:25:12.536Z,101484.41
2022-10-07T00:27:41.564Z,101480.09
2022-10-07T00:30:11.624Z,101478.34
2022-10-07T00:32:40.658Z,101475.75
2022-10-07T00:35:09.884Z,101480.09
2022-10-07T00:37:43.183Z,101479.19
2022-10-07T00:40:17.330Z,101486.19
2022-10-07T00:42:45.935Z,101485.31
2022-10-07T00:45:16.164Z,101480.97
2022-10-07T00:47:47.836Z,101481.03
2022-10-07T00:50:20.392Z,101489.75
2022-10-07T00:52:53.682Z,101477.59
2022-10-07T00:55:27.544Z,101484.59
2022-10-07T00:57:59.725Z,101479.38
2022-10-07T01:00:28.344Z,101482.88
2022-10-07T01:03:03.723Z,101488.09
2022-10-07T01:05:34.741Z,101489.84
2022-10-07T01:08:03.689Z,101486.41
2022-10-07T01:10:45.090Z,101489.91
2022-10-07T01:13:25.502Z,101476.06
2022-10-07T01:16:02.128Z,101483.84
2022-10-07T01:18:38.736Z,101482.13
2022-10-07T01:21:14.019Z,101481.28
2022-10-07T01:23:58.375Z,101485.63
2022-10-07T01:26:50.051Z,101480.44
2022-10-07T01:29:26.048Z,101477.00
2022-10-07T01:32:03.725Z,101478.72
2022-10-07T01:34:35.349Z,101483.09
2022-10-07T01:37:07.667Z,101478.75
2022-10-07T01:39:42.118Z,101477.03
2022-10-07T01:42:13.254Z,101477.03
2022-10-07T01:44:44.949Z,101479.69
2022-10-07T01:47:13.612Z,101476.19
2022-10-07T01:49:42.964Z,101477.94
2022-10-07T01:52:33.394Z,101478.78
2022-10-07T01:55:17.429Z,101471.81
2022-10-07T01:58:00.939Z,101477.00
2022-10-07T02:00:31.376Z,101484.81
2022-10-07T02:03:32.304Z,101478.78
2022-10-07T02:06:10.964Z,101471.88
2022-10-07T02:08:45.880Z,101475.34
2022-10-07T02:11:17.692Z,101479.66
2022-10-07T02:14:01.530Z,101478.81
2022-10-07T02:16:38.318Z,101479.66
2022-10-07T02:19:12.393Z,101467.53
2022-10-07T02:21:44.753Z,101469.25
2022-10-07T02:24:15.768Z,101470.13
2022-10-07T02:26:47.641Z,101467.53
2022-10-07T02:29:21.576Z,101467.53
2022-10-07T02:31:53.710Z,101470.97
2022-10-07T02:34:26.332Z,101472.75
2022-10-07T02:37:00.988Z,101481.44
2022-10-07T02:39:31.382Z,101476.22
2022-10-07T02:42:05.804Z,101480.56
2022-10-07T02:44:46.611Z,101473.66
2022-10-07T02:47:21.543Z,101483.19
2022-10-07T02:49:54.363Z,101478.88
2022-10-07T02:52:24.853Z,101469.34
2022-10-07T02:54:59.287Z,101474.53
2022-10-07T02:57:32.590Z,101465.00
2022-10-07T03:00:07.368Z,101470.22
2022-10-07T03:02:50.715Z,101481.50
2022-10-07T03:05:21.934Z,101476.31
2022-10-07T03:07:55.979Z,101476.31
2022-10-07T03:10:26.955Z,101471.97
2022-10-07T03:12:55.914Z,101472.81
2022-10-07T03:15:27.674Z,101478.06
2022-10-07T03:17:58.263Z,101481.50
2022-10-07T03:20:30.388Z,101478.91
2022-10-07T03:22:59.745Z,101472.84
2022-10-07T03:25:29.495Z,101476.31
2022-10-07T03:27:58.859Z,101472.00
2022-10-07T03:30:29.119Z,101475.47
2022-10-07T03:32:59.884Z,101476.34
2022-10-07T03:35:28.623Z,101469.41
2022-10-07T03:37:57.540Z,101473.75
2022-10-07T03:40:26.554Z,101465.06
2022-10-07T03:42:55.438Z,101464.19
2022-10-07T03:45:24.073Z,101456.41
2022-10-07T03:47:54.477Z,101459.88
2022-10-07T03:50:23.711Z,101459.88
2022-10-07T03:52:52.536Z,101460.72
2022-10-07T03:55:21.482Z,101452.94
2022-10-07T03:57:58.533Z,101455.56
2022-10-07T04:00:29.662Z,101457.28
2022-10-07T04:03:01.177Z,101452.06
2022-10-07T04:05:30.516Z,101465.06
2022-10-07T04:07:58.990Z,101459.00
2022-10-07T04:10:28.368Z,101457.28
2022-10-07T04:12:57.905Z,101450.31
2022-10-07T04:15:26.696Z,101454.66
2022-10-07T04:17:58.895Z,101446.88
2022-10-07T04:20:30.838Z,101442.56
2022-10-07T04:22:59.823Z,101446.88
2022-10-07T04:25:38.880Z,101434.75
2022-10-07T04:28:19.932Z,101440.78
2022-10-07T04:30:54.071Z,101446.84
2022-10-07T04:33:33.181Z,101441.66
2022-10-07T04:36:09.487Z,101438.19
2022-10-07T04:38:50.600Z,101446.84
2022-10-07T04:41:23.033Z,101441.66
2022-10-07T04:43:56.833Z,101445.13
2022-10-07T04:46:29.868Z,101438.19
2022-10-07T04:49:03.961Z,101437.31
2022-10-07T04:51:48.698Z,101443.34
2022-10-07T04:54:20.316Z,101440.78
2022-10-07T04:56:53.951Z,101436.47
2022-10-07T04:59:29.166Z,101435.56
2022-10-07T05:02:02.310Z,101439.03
2022-10-07T05:04:34.088Z,101438.19
2022-10-07T05:07:10.869Z,101435.59
2022-10-07T05:09:40.088Z,101436.44
2022-10-07T05:12:09.667Z,101434.72
2022-10-07T05:14:38.782Z,101436.44
2022-10-07T05:17:08.880Z,101438.16
2022-10-07T05:19:38.968Z,101435.59
2022-10-07T05:22:10.009Z,101441.63
2022-10-07T05:24:40.407Z,101445.09
2022-10-07T05:27:10.544Z,101443.38
2022-10-07T05:29:39.689Z,101447.72
2022-10-07T05:32:08.614Z,101440.81
2022-10-07T05:34:38.689Z,101446.00
2022-10-07T05:37:09.414Z,101439.94
2022-10-07T05:39:39.513Z,101446.84
2022-10-07T05:42:15.544Z,101451.19
2022-10-07T05:44:52.758Z,101450.34
2022-10-07T05:47:22.223Z,101443.41
2022-10-07T05:49:54.844Z,101451.22
2022-10-07T05:52:33.470Z,101448.59
2022-10-07T05:55:08.724Z,101439.94
2022-10-07T05:57:40.116Z,101446.88
2022-10-07T06:00:11.326Z,101446.88
2022-10-07T06:02:46.803Z,101450.34
2022-10-07T06:05:15.907Z,101443.44
2022-10-07T06:07:48.205Z,101445.13
2022-10-07T06:10:35.397Z,101444.28
2022-10-07T06:13:09.095Z,101446.00
2022-10-07T06:15:40.803Z,101447.72
2022-10-07T06:18:10.905Z,101447.72
2022-10-07T06:20:41.960Z,101447.69
2022-10-07T06:23:12.515Z,101448.56
2022-10-07T06:25:45.698Z,101447.66
2022-10-07T06:28:17.807Z,101442.44
2022-10-07T06:30:50.692Z,101451.06
2022-10-07T06:33:20.780Z,101444.97
2022-10-07T06:36:00.918Z,101441.41
2022-10-07T06:38:35.897Z,101440.44
2022-10-07T06:41:12.942Z,101441.22
2022-10-07T06:43:45.068Z,101438.50
2022-10-07T06:46:19.099Z,101440.06
2022-10-07T06:48:51.532Z,101442.53
2022-10-07T06:51:22.853Z,101441.50
2022-10-07T06:53:55.443Z,101435.28
2022-10-07T06:56:24.035Z,101445.56
2022-10-07T06:58:56.665Z,101442.75
2022-10-07T07:01:36.095Z,101441.69
2022-10-07T07:04:05.602Z,101437.13
2022-10-07T07:06:37.883Z,101447.34
2022-10-07T07:09:11.172Z,101446.31
2022-10-07T07:11:45.517Z,101444.41
2022-10-07T07:14:27.397Z,101439.00
2022-10-07T07:17:04.728Z,101441.44
2022-10-07T07:19:36.780Z,101442.09
2022-10-07T07:22:08.473Z,101440.94
2022-10-07T07:24:39.308Z,101433.38
2022-10-07T07:27:12.535Z,101431.38
2022-10-07T07:29:41.673Z,101434.75
2022-10-07T07:32:10.760Z,101424.09
2022-10-07T07:34:43.364Z,101422.84
2022-10-07T07:37:17.592Z,101430.53
2022-10-07T07:39:58.069Z,101419.78
2022-10-07T07:42:28.441Z,101428.22
2022-10-07T07:45:00.519Z,101427.84
2022-10-07T07:47:30.146Z,101425.66
2022-10-07T07:49:59.440Z,101422.78
2022-10-07T07:52:34.564Z,101421.66
2022-10-07T07:55:12.432Z,101427.34
2022-10-07T07:57:43.085Z,101417.88
2022-10-07T08:00:16.307Z,101418.88
2022-10-07T08:02:55.158Z,101415.53
2022-10-07T08:05:25.834Z,101422.50
2022-10-07T08:07:58.573Z,101418.22
2022-10-07T08:10:32.072Z,101423.06
2022-10-07T08:13:01.473Z,101424.16
2022-10-07T08:15:30.997Z,101415.38
2022-10-07T08:18:00.502Z,101429.69
2022-10-07T08:20:29.766Z,101412.66
2022-10-07T08:23:02.516Z,101413.19
2022-10-07T08:25:33.121Z,101418.03
2022-10-07T08:28:04.848Z,101409.59
2022-10-07T08:30:36.216Z,101407.03
2022-10-07T08:33:05.290Z,101412.56
2022-10-07T08:35:34.417Z,101401.94
2022-10-07T08:38:03.437Z,101407.41
2022-10-07T08:40:34.117Z,101410.69
2022-10-07T08:43:03.269Z,101405.53
2022-10-07T08:45:34.786Z,101402.34
2022-10-07T08:48:08.697Z,101404.59
2022-10-07T08:50:50.699Z,101399.72
2022-10-07T08:53:25.634Z,101402.91
2022-10-07T08:56:01.461Z,101399.88
2022-10-07T08:58:57.306Z,101398.91
2022-10-07T09:01:40.783Z,101397.44
2022-10-07T09:04:23.960Z,101384.78
2022-10-07T09:06:59.228Z,101386.25
2022-10-07T09:09:35.944Z,101384.75
2022-10-07T09:12:14.300Z,101376.66
2022-10-07T09:14:48.364Z,101382.00
2022-10-07T09:17:21.659Z,101373.63
2022-10-07T09:19:56.425Z,101372.38
2022-10-07T09:22:33.285Z,101369.59
2022-10-07T09:25:22.244Z,101369.19
2022-10-07T09:27:52.478Z,101365.69
2022-10-07T09:30:22.208Z,101364.88
2022-10-07T09:32:54.500Z,101358.03
2022-10-07T09:35:25.769Z,101357.22
2022-10-07T09:38:02.173Z,101348.13
2022-10-07T09:40:36.693Z,101348.56
2022-10-07T09:43:14.371Z,101335.97
2022-10-07T09:45:51.356Z,101339.03
2022-10-07T09:48:25.067Z,101336.06
2022-10-07T09:51:12.531Z,101329.94
2022-10-07T09:53:59.092Z,101334.03
2022-10-07T09:56:39.725Z,101325.81
2022-10-07T09:59:32.768Z,101334.31
2022-10-07T10:02:04.761Z,101312.94
2022-10-07T10:04:39.614Z,101313.66
2022-10-07T10:07:20.396Z,101309.41
2022-10-07T10:09:53.433Z,101302.13
2022-10-07T10:12:24.931Z,101299.16
2022-10-07T10:14:57.604Z,101302.81
2022-10-07T10:17:30.833Z,101296.22
2022-10-07T10:20:32.469Z,101298.00
2022-10-07T10:23:03.697Z,101285.53
2022-10-07T10:26:22.051Z,101290.06
2022-10-07T10:28:57.539Z,101272.75
2022-10-07T10:31:37.247Z,101266.03
2022-10-07T10:34:16.528Z,101263.34
2022-10-07T10:36:50.872Z,101260.13
2022-10-07T10:39:30.494Z,101261.78
2022-10-07T10:42:04.583Z,101263.13
2022-10-07T10:44:47.645Z,101256.72
2022-10-07T10:47:28.357Z,101254.78
2022-10-07T10:50:10.465Z,101249.47
2022-10-07T10:52:54.718Z,101238.97
2022-10-07T10:55:51.474Z,101239.53
2022-10-07T10:58:31.823Z,101241.75
2022-10-07T11:01:12.464Z,101229.94
2022-10-07T11:04:01.943Z,101227.25
2022-10-07T11:06:34.447Z,101228.53
2022-10-07T11:09:06.123Z,101213.28
2022-10-07T11:11:36.842Z,101219.84
2022-10-07T11:14:16.476Z,101203.97
2022-10-07T11:16:54.272Z,101201.34
2022-10-07T11:19:30.237Z,101186.78
2022-10-07T11:22:05.535Z,101191.69
2022-10-07T11:24:40.811Z,101183.56
2022-10-07T11:27:17.810Z,101190.16
2022-10-07T11:29:52.459Z,101170.81
2022-10-07T11:32:33.656Z,101175.19
2022-10-07T11:35:23.435Z,101172.31
2022-10-07T11:37:59.536Z,101167.47
2022-10-07T11:40:33.063Z,101159.16
2022-10-07T11:43:10.367Z,101153.91
2022-10-07T11:45:48.013Z,101150.06
2022-10-07T11:48:23.356Z,101144.06
2022-10-07T11:51:02.325Z,101139.53
2022-10-07T11:53:37.969Z,101128.97
2022-10-07T11:56:17.002Z,101126.13
2022-10-07T11:58:49.120Z,101124.41
2022-10-07T12:01:56.759Z,101126.22
2022-10-07T12:04:39.367Z,101125.19
2022-10-07T12:07:39.401Z,101115.41
2022-10-07T12:10:23.613Z,101112.56
2022-10-07T12:12:58.358Z,101106.91
2022-10-07T12:15:42.533Z,101103.41
2022-10-07T12:18:28.602Z,101103.97
2022-10-07T12:21:09.459Z,101097.72
2022-10-07T12:23:49.072Z,101100.69
2022-10-07T12:26:53.593Z,101093.06
2022-10-07T12:29:46.243Z,101096.94
2022-10-07T12:32:44.505Z,101089.06
2022-10-07T12:35:42.769Z,101083.16
2022-10-07T12:38:20.509Z,101078.31
2022-10-07T12:41:19.047Z,101066.13
2022-10-07T12:43:54.019Z,101069.91
2022-10-07T12:46:24.996Z,101069.09
2022-10-07T12:49:04.484Z,101064.16
2022-10-07T12:51:38.913Z,101056.88
2022-10-07T12:54:18.415Z,101057.25
2022-10-07T12:56:50.712Z,101045.63
2022-10-07T12:59:47.943Z,101042.00
2022-10-07T13:02:59.387Z,101025.59
2022-10-07T13:06:07.403Z,101025.97
2022-10-07T13:09:27.256Z,101020.88
2022-10-07T13:12:12.865Z,101007.47
2022-10-07T13:15:02.215Z,101003.13
2022-10-07T13:17:40.849Z,101007.97
2022-10-07T13:20:27.368Z,101000.47
2022-10-07T13:22:57.375Z,100996.22
2022-10-07T13:25:26.405Z,100997.53
2022-10-07T13:28:00.436Z,100994.47
2022-10-07T13:30:42.403Z,100986.84
2022-10-07T13:33:24.144Z,100985.13
2022-10-07T13:35:54.016Z,100980.41
2022-10-07T13:38:27.494Z,100978.06
2022-10-07T13:41:06.504Z,100975.84
2022-10-07T13:43:40.462Z,100971.78
2022-10-07T13:46:12.515Z,100964.97
2022-10-07T13:48:45.954Z,100957.84
2022-10-07T13:51:29.441Z,100965.91
2022-10-07T13:54:00.096Z,100955.34
2022-10-07T13:56:36.567Z,100957.84
2022-10-07T13:59:10.192Z,100941.88
2022-10-07T14:01:41.074Z,100939.28
2022-10-07T14:04:23.147Z,100931.53
2022-10-07T14:07:07.537Z,100935.41
2022-10-07T14:09:47.413Z,100922.84
2022-10-07T14:12:24.715Z,100921.00
2022-10-07T14:15:01.095Z,100919.25
2022-10-07T14:17:42.349Z,100911.50
2022-10-07T14:20:26.216Z,100912.16
2022-10-07T14:23:00.571Z,100910.44
2022-10-07T14:25:31.718Z,100900.91
2022-10-07T14:28:18.365Z,100892.47
2022-10-07T14:31:27.973Z,100887.06
2022-10-07T14:34:30.843Z,100873.59
2022-10-07T14:37:11.515Z,100867.13
2022-10-07T14:39:47.035Z,100867.41
2022-10-07T14:42:19.471Z,100857.66
2022-10-07T14:44:51.821Z,100850.28
2022-10-07T14:47:22.557Z,100853.72
2022-10-07T14:49:54.149Z,100852.41
2022-10-07T14:52:28.458Z,100842.44
2022-10-07T14:54:59.270Z,100845.03
2022-10-07T14:57:28.281Z,100838.88
2022-10-07T15:00:06.224Z,100835.88
2022-10-07T15:02:38.965Z,100839.69
2022-10-07T15:05:19.021Z,100835.75
2022-10-07T15:07:51.940Z,100835.19
2022-10-07T15:10:26.446Z,100830.09
2022-10-07T15:13:11.075Z,100829.81
2022-10-07T15:15:43.771Z,100821.50
2022-10-07T15:18:15.946Z,100831.59
2022-10-07T15:20:55.937Z,100833.56
2022-10-07T15:23:25.144Z,100833.81
2022-10-07T15:25:54.727Z,100836.47
2022-10-07T15:28:26.887Z,100825.00
2022-10-07T15:31:03.658Z,100822.38
2022-10-07T15:33:33.239Z,100817.06
2022-10-07T15:36:05.206Z,100815.22
2022-10-07T15:38:34.218Z,100819.63
2022-10-07T15:41:03.544Z,100820.31
2022-10-07T15:43:37.328Z,100825.41
2022-10-07T15:46:07.442Z,100827.00
2022-10-07T15:48:38.696Z,100831.78
2022-10-07T15:51:09.722Z,100815.72
2022-10-07T15:53:40.867Z,100822.09
2022-10-07T15:56:12.728Z,100817.22
2022-10-07T15:58:44.914Z,100821.09
2022-10-07T16:01:17.285Z,100815.34
2022-10-07T16:03:48.768Z,100802.78
2022-10-07T16:06:22.066Z,100806.03
2022-10-07T16:08:56.426Z,100803.38
2022-10-07T16:11:26.452Z,100802.28
2022-10-07T16:13:55.462Z,100795.97
2022-10-07T16:16:26.091Z,100799.25
2022-10-07T16:18:58.202Z,100796.09
2022-10-07T16:21:30.685Z,100792.09
2022-10-07T16:24:01.027Z,100790.13
2022-10-07T16:26:31.588Z,100796.59
2022-10-07T16:29:18.692Z,100785.56
2022-10-07T16:31:48.865Z,100786.06
2022-10-07T16:34:19.327Z,100781.16
2022-10-07T16:36:50.828Z,100775.50
2022-10-07T16:39:23.618Z,100776.78
2022-10-07T16:41:55.413Z,100779.88
2022-10-07T16:44:25.054Z,100782.81
2022-10-07T16:46:57.060Z,100779.72
2022-10-07T16:49:27.773Z,100772.03
2022-10-07T16:51:58.530Z,100776.59
2022-10-07T16:54:30.117Z,100778.44
2022-10-07T16:56:58.860Z,100771.53
2022-10-07T16:59:28.077Z,100764.59
2022-10-07T17:02:00.366Z,100765.59
2022-10-07T17:04:30.383Z,100770.16
2022-10-07T17:07:05.921Z,100765.94
2022-10-07T17:09:37.742Z,100766.97
2022-10-07T17:12:06.970Z,100761.84
2022-10-07T17:14:37.514Z,100764.75
2022-10-07T17:17:08.126Z,100758.03
2022-10-07T17:19:40.034Z,100753.81
2022-10-07T17:22:11.384Z,100750.53
2022-10-07T17:24:40.378Z,100741.13
2022-10-07T17:27:09.102Z,100741.16
2022-10-07T17:29:38.694Z,100749.13
2022-10-07T17:32:07.701Z,100740.44
2022-10-07T17:34:36.625Z,100738.81
2022-10-07T17:37:05.361Z,100736.44
2022-10-07T17:39:35.528Z,100736.63
2022-10-07T17:42:06.817Z,100734.97
2022-10-07T17:44:36.062Z,100733.38
2022-10-07T17:47:08.239Z,100736.13
2022-10-07T17:49:36.952Z,100733.59
2022-10-07T17:52:05.748Z,100729.97
2022-10-07T17:54:37.133Z,100725.50
2022-10-07T17:57:05.863Z,100720.34
2022-10-07T17:59:34.841Z,100716.06
2022-10-07T18:02:04.434Z,100710.09
2022-10-07T18:04:33.343Z,100714.69
2022-10-07T18:07:01.887Z,100714.88
2022-10-07T18:09:30.817Z,100713.28
2022-10-07T18:12:18.317Z,100703.75
2022-10-07T18:15:04.595Z,100702.94
2022-10-07T18:17:34.354Z,100713.53
2022-10-07T18:20:07.285Z,100709.19
2022-10-07T18:22:37.686Z,100702.22
2022-10-07T18:25:07.394Z,100707.41
2022-10-07T18:27:37.445Z,100705.72
2022-10-07T18:30:07.405Z,100700.31
2022-10-07T18:32:36.070Z,100700.31
2022-10-07T18:35:06.665Z,100708.09
2022-10-07T18:37:36.450Z,100700.94
2022-10-07T18:40:08.479Z,100703.38
2022-10-07T18:42:39.638Z,100705.91
2022-10-07T18:45:09.964Z,100703.22
2022-10-07T18:47:39.265Z,100704.88
2022-10-07T18:50:08.688Z,100701.41
2022-10-07T18:52:37.413Z,100697.84
2022-10-07T18:55:06.923Z,100702.25
2022-10-07T18:57:35.895Z,100703.22
2022-10-07T19:00:07.673Z,100705.09
2022-10-07T19:02:36.366Z,100700.66
2022-10-07T19:05:06.466Z,100705.09
2022-10-07T19:07:35.534Z,100695.41
2022-10-07T19:10:04.375Z,100695.41
2022-10-07T19:12:50.811Z,100698.13
2022-10-07T19:15:21.471Z,100689.56
2022-10-07T19:17:50.755Z,100688.81
2022-10-07T19:20:20.205Z,100691.66
2022-10-07T19:22:54.524Z,100697.00
2022-10-07T19:25:40.871Z,100697.00
2022-10-07T19:28:09.931Z,100690.97
2022-10-07T19:30:42.456Z,100697.28
2022-10-07T19:33:11.545Z,100686.97
2022-10-07T19:35:40.743Z,100684.50
2022-10-07T19:38:11.283Z,100688.16
2022-10-07T19:40:41.194Z,100679.50
2022-10-07T19:43:11.682Z,100672.66
2022-10-07T19:45:43.393Z,100665.81
2022-10-07T19:48:14.566Z,100676.28
2022-10-07T19:50:43.547Z,100669.44
2022-10-07T19:53:16.946Z,100667.84
2022-10-07T19:55:48.601Z,100671.44
2022-10-07T19:58:17.528Z,100665.47
2022-10-07T20:00:48.505Z,100662.16
2022-10-07T20:03:17.512Z,100670.94
2022-10-07T20:05:46.407Z,100666.59
2022-10-07T20:08:17.838Z,100653.59
2022-10-07T20:10:47.208Z,100662.38
2022-10-07T20:13:17.716Z,100658.09
2022-10-07T20:15:48.629Z,100655.66
2022-10-07T20:18:17.414Z,100651.34
2022-10-07T20:20:46.687Z,100647.09
2022-10-07T20:23:15.592Z,100642.00
2022-10-07T20:25:46.547Z,100643.91
2022-10-07T20:28:15.763Z,100633.72
2022-10-07T20:30:44.634Z,100640.84
2022-10-07T20:33:15.149Z,100634.00
2022-10-07T20:35:44.011Z,100635.88
2022-10-07T20:38:13.133Z,100625.56
2022-10-07T20:41:00.045Z,100624.75
2022-10-07T20:43:32.047Z,100634.44
2022-10-07T20:46:00.790Z,100629.38
2022-10-07T20:48:33.568Z,100625.16
2022-10-07T20:51:08.563Z,100630.31
2022-10-07T20:53:37.580Z,100626.88
2022-10-07T20:56:07.228Z,100621.63
2022-10-07T20:58:37.487Z,100625.16
2022-10-07T21:01:08.929Z,100619.09
2022-10-07T21:03:40.290Z,100616.66
2022-10-07T21:06:10.954Z,100609.88
2022-10-07T21:08:39.994Z,100606.50
2022-10-07T21:11:08.794Z,100598.72
2022-10-07T21:13:38.091Z,100599.75
2022-10-07T21:16:07.912Z,100601.69
2022-10-07T21:18:38.407Z,100597.50
2022-10-07T21:21:11.767Z,100596.81
2022-10-07T21:23:40.607Z,100597.78
2022-10-07T21:26:09.465Z,100595.22
2022-10-07T21:28:38.950Z,100588.22
2022-10-07T21:31:10.882Z,100587.44
2022-10-07T21:33:41.108Z,100582.19
2022-10-07T21:36:16.616Z,100582.19
2022-10-07T21:38:46.374Z,100581.31
2022-10-07T21:41:21.395Z,100571.81
2022-10-07T21:43:50.738Z,100573.63
2022-10-07T21:46:19.893Z,100566.66
2022-10-07T21:48:49.142Z,100560.63
2022-10-07T21:51:19.714Z,100562.38
2022-10-07T21:53:51.388Z,100559.03
2022-10-07T21:56:20.918Z,100551.25
2022-10-07T21:58:54.142Z,100553.81
2022-10-07T22:01:24.447Z,100553.88
2022-10-07T22:03:56.333Z,100544.31
2022-10-07T22:06:41.356Z,100540.03
2022-10-07T22:09:10.310Z,100537.34
2022-10-07T22:11:39.640Z,100530.41
2022-10-07T22:14:12.549Z,100529.59
2022-10-07T22:16:42.551Z,100534.06
2022-10-07T22:19:12.598Z,100525.28
2022-10-07T22:21:43.577Z,100519.09
2022-10-07T22:24:15.205Z,100516.53
2022-10-07T22:26:46.485Z,100513.88
2022-10-07T22:29:17.575Z,100500.75
2022-10-07T22:31:47.284Z,100499.09
2022-10-07T22:34:29.844Z,100496.44
2022-10-07T22:36:59.995Z,100492.09
2022-10-07T22:39:30.384Z,100484.25
2022-10-07T22:42:00.138Z,100486.81
2022-10-07T22:44:29.109Z,100485.03
2022-10-07T22:46:59.472Z,100485.91
2022-10-07T22:49:30.061Z,100477.97
2022-10-07T22:52:01.153Z,100483.19
2022-10-07T22:54:30.351Z,100480.47
2022-10-07T22:56:58.933Z,100479.59
2022-10-07T22:59:27.584Z,100468.97
2022-10-07T23:01:56.252Z,100466.22
2022-10-07T23:04:24.829Z,100463.59
2022-10-07T23:06:53.701Z,100449.81
2022-10-07T23:09:23.835Z,100454.44
2022-10-07T23:11:52.619Z,100457.97
2022-10-07T23:14:21.345Z,100453.63
2022-10-07T23:16:50.376Z,100453.63
2022-10-07T23:19:19.340Z,100450.28
2022-10-07T23:21:48.887Z,100443.31
2022-10-07T23:24:17.855Z,100445.03
2022-10-07T23:26:48.256Z,100444.94
2022-10-07T23:29:17.433Z,100442.31
2022-10-07T23:31:46.300Z,100444.94
2022-10-07T23:34:15.357Z,100444.94
2022-10-07T23:36:44.098Z,100437.97
2022-10-07T23:39:13.615Z,100438.88
2022-10-07T23:41:42.520Z,100432.75
2022-10-07T23:44:12.637Z,100429.19
2022-10-07T23:46:44.997Z,100430.03
2022-10-07T23:49:13.721Z,100436.13
2022-10-07T23:51:42.363Z,100429.19
2022-10-07T23:54:11.302Z,100421.38
2022-10-07T23:56:39.979Z,100424.06
2022-10-07T23:59:08.817Z,100416.25
